Aviation Digital Data Service (ADDS)

Output produced by METARs form (0455 UTC 16 February 2019)
found at http://www.aviationweather.gov/metar/data/
 
METAR text: UWKD 160430Z 29006MPS 9999 -SNRA BKN008 00/M00 Q0998 R29/420337 NOSIG RMK QFE737/0983
Conditions at: UWKD (KAZAN , RU) observed 0430 UTC 16 February 2019
Temperature: 0.0°C (32°F)
Dewpoint: 0.0°C (32°F) [RH = 100%]
Pressure (altimeter): 29.47 inches Hg (998.0 mb)
Winds: from the WNW (290 degrees) at 14 MPH (12 knots; 6.2 m/s)
Visibility: 6 or more miles (10+ km)
Ceiling: 800 feet AGL
Clouds: broken clouds at 800 feet AGL
Weather: -SN -RA  (light snow, light rain)

METAR text: UWKD 160400Z 29005MPS 4000 -SNRA BKN008 00/M01 Q0998 R29/420337 NOSIG RMK QFE737/0983
Conditions at: UWKD (KAZAN , RU) observed 0400 UTC 16 February 2019
Temperature: 0.0°C (32°F)
Dewpoint: -1.0°C (30°F) [RH = 93%]
Pressure (altimeter): 29.47 inches Hg (998.0 mb)
Winds: from the WNW (290 degrees) at 12 MPH (10 knots; 5.1 m/s)
Visibility: 2.49 miles (4.01 km)
Ceiling: 800 feet AGL
Clouds: broken clouds at 800 feet AGL
Weather: -SN -RA  (light snow, light rain)

METAR text: UWKD 160330Z 29006MPS 9999 BKN008 00/M00 Q0998 R29/420337 NOSIG RMK QFE737/0983
Conditions at: UWKD (KAZAN , RU) observed 0330 UTC 16 February 2019
Temperature: 0.0°C (32°F)
Dewpoint: 0.0°C (32°F) [RH = 100%]
Pressure (altimeter): 29.47 inches Hg (998.0 mb)
Winds: from the WNW (290 degrees) at 14 MPH (12 knots; 6.2 m/s)
Visibility: 6 or more miles (10+ km)
Ceiling: 800 feet AGL
Clouds: broken clouds at 800 feet AGL
Weather: no significant weather observed at this time

METAR text: UWKD 160300Z 29005MPS 9999 BKN006 00/M01 Q0998 R29/420337 TEMPO OVC005 RMK QFE737/0983
Conditions at: UWKD (KAZAN , RU) observed 0300 UTC 16 February 2019
Temperature: 0.0°C (32°F)
Dewpoint: -1.0°C (30°F) [RH = 93%]
Pressure (altimeter): 29.47 inches Hg (998.0 mb)
Winds: from the WNW (290 degrees) at 12 MPH (10 knots; 5.1 m/s)
Visibility: 6 or more miles (10+ km)
Ceiling: 600 feet AGL
Clouds: broken clouds at 600 feet AGL
Weather: no significant weather observed at this time

METAR text: UWKD 160230Z 29006MPS 9999 BKN006 00/M00 Q0998 R29/420337 TEMPO OVC005 RMK QFE737/0983
Conditions at: UWKD (KAZAN , RU) observed 0230 UTC 16 February 2019
Temperature: 0.0°C (32°F)
Dewpoint: 0.0°C (32°F) [RH = 100%]
Pressure (altimeter): 29.47 inches Hg (998.0 mb)
Winds: from the WNW (290 degrees) at 14 MPH (12 knots; 6.2 m/s)
Visibility: 6 or more miles (10+ km)
Ceiling: 600 feet AGL
Clouds: broken clouds at 600 feet AGL
Weather: no significant weather observed at this time

METAR text: UWKD 160200Z 29005MPS 9999 -SNRA OVC006 00/M01 Q0998 R29/420337 TEMPO OVC005 RMK QFE737/0983
Conditions at: UWKD (KAZAN , RU) observed 0200 UTC 16 February 2019
Temperature: 0.0°C (32°F)
Dewpoint: -1.0°C (30°F) [RH = 93%]
Pressure (altimeter): 29.47 inches Hg (998.0 mb)
Winds: from the WNW (290 degrees) at 12 MPH (10 knots; 5.1 m/s)
Visibility: 6 or more miles (10+ km)
Ceiling: 600 feet AGL
Clouds: overcast cloud deck at 600 feet AGL
Weather: -SN -RA  (light snow, light rain)

METAR text: UWKD 160130Z 29005MPS 9999 -SN OVC006 M00/M01 Q0998 R29/420337 TEMPO OVC005 RMK QFE737/0983
Conditions at: UWKD (KAZAN , RU) observed 0130 UTC 16 February 2019
Temperature: 0.0°C (32°F)
Dewpoint: -1.0°C (30°F) [RH = 93%]
Pressure (altimeter): 29.47 inches Hg (998.0 mb)
Winds: from the WNW (290 degrees) at 12 MPH (10 knots; 5.1 m/s)
Visibility: 6 or more miles (10+ km)
Ceiling: 600 feet AGL
Clouds: overcast cloud deck at 600 feet AGL
Weather: -SN  (light snow)

METAR text: UWKD 160100Z 28006MPS 4700 1400SW SNRA OVC006 00/M01 Q0998 R29/420337 TEMPO 1000 SNRA OVC005 RMK QFE737/0983
Conditions at: UWKD (KAZAN , RU) observed 0100 UTC 16 February 2019
Temperature: 0.0°C (32°F)
Dewpoint: -1.0°C (30°F) [RH = 93%]
Pressure (altimeter): 29.47 inches Hg (998.0 mb)
Winds: from the W (280 degrees) at 14 MPH (12 knots; 6.2 m/s)
Visibility: 2.92 miles (4.70 km)
Ceiling: 600 feet AGL
Clouds: overcast cloud deck at 600 feet AGL
Weather: SN RA  (moderate snow, moderate rain)

METAR text: UWKD 160030Z 28006MPS 9999 -SN OVC006 M00/M01 Q0998 R29/420337 TEMPO OVC005 RMK QFE737/0983
Conditions at: UWKD (KAZAN , RU) observed 0030 UTC 16 February 2019
Temperature: 0.0°C (32°F)
Dewpoint: -1.0°C (30°F) [RH = 93%]
Pressure (altimeter): 29.47 inches Hg (998.0 mb)
Winds: from the W (280 degrees) at 14 MPH (12 knots; 6.2 m/s)
Visibility: 6 or more miles (10+ km)
Ceiling: 600 feet AGL
Clouds: overcast cloud deck at 600 feet AGL
Weather: -SN  (light snow)

METAR text: UWKD 160000Z 28006MPS 9999 -SN OVC006 M00/M01 Q0998 R29/420337 TEMPO OVC005 RMK QFE737/0983
Conditions at: UWKD (KAZAN , RU) observed 0000 UTC 16 February 2019
Temperature: 0.0°C (32°F)
Dewpoint: -1.0°C (30°F) [RH = 93%]
Pressure (altimeter): 29.47 inches Hg (998.0 mb)
Winds: from the W (280 degrees) at 14 MPH (12 knots; 6.2 m/s)
Visibility: 6 or more miles (10+ km)
Ceiling: 600 feet AGL
Clouds: overcast cloud deck at 600 feet AGL
Weather: -SN  (light snow)

METAR text: UWKD 152330Z 28007MPS 1400 1300SW R29/P2000D SN OVC006 M00/M01 Q0998 R29/420337 TEMPO 0800 +SNRA OVC005 RMK QFE737/0983
Conditions at: UWKD (KAZAN , RU) observed 2330 UTC 15 February 2019
Temperature: 0.0°C (32°F)
Dewpoint: -1.0°C (30°F) [RH = 93%]
Pressure (altimeter): 29.47 inches Hg (998.0 mb)
Winds: from the W (280 degrees) at 16 MPH (14 knots; 7.2 m/s)
Visibility: 0.87 miles (1.40 km)
Ceiling: 600 feet AGL
Clouds: overcast cloud deck at 600 feet AGL
Weather: SN  (moderate snow)

METAR text: UWKD 152300Z 28006MPS 6000 -SN OVC008 M00/M01 Q0998 R29/420337 TEMPO 3100 -SNRA OVC005 RMK QFE737/0983
Conditions at: UWKD (KAZAN , RU) observed 2300 UTC 15 February 2019
Temperature: 0.0°C (32°F)
Dewpoint: -1.0°C (30°F) [RH = 93%]
Pressure (altimeter): 29.47 inches Hg (998.0 mb)
Winds: from the W (280 degrees) at 14 MPH (12 knots; 6.2 m/s)
Visibility: 4 miles ( 6 km)
Ceiling: 800 feet AGL
Clouds: overcast cloud deck at 800 feet AGL
Weather: -SN  (light snow)

METAR text: UWKD 152230Z 27005MPS 6000 -SN OVC007 M00/M01 Q0998 R29/420337 TEMPO 2000 SN OVC004 RMK QFE737/0983
Conditions at: UWKD (KAZAN , RU) observed 2230 UTC 15 February 2019
Temperature: 0.0°C (32°F)
Dewpoint: -1.0°C (30°F) [RH = 93%]
Pressure (altimeter): 29.47 inches Hg (998.0 mb)
Winds: from the W (270 degrees) at 12 MPH (10 knots; 5.1 m/s)
Visibility: 4 miles ( 6 km)
Ceiling: 700 feet AGL
Clouds: overcast cloud deck at 700 feet AGL
Weather: -SN  (light snow)

METAR text: UWKD 152200Z 27005MPS 4800 -SN OVC007 M00/M01 Q0998 R29/420337 NOSIG RMK QFE737/0983
Conditions at: UWKD (KAZAN , RU) observed 2200 UTC 15 February 2019
Temperature: 0.0°C (32°F)
Dewpoint: -1.0°C (30°F) [RH = 93%]
Pressure (altimeter): 29.47 inches Hg (998.0 mb)
Winds: from the W (270 degrees) at 12 MPH (10 knots; 5.1 m/s)
Visibility: 2.98 miles (4.80 km)
Ceiling: 700 feet AGL
Clouds: overcast cloud deck at 700 feet AGL
Weather: -SN  (light snow)

METAR text: UWKD 152130Z 27005MPS 7000 -SN OVC006 M01/M01 Q0998 R29/421040 NOSIG RMK QFE737/0983
Conditions at: UWKD (KAZAN , RU) observed 2130 UTC 15 February 2019
Temperature: -1.0°C (30°F)
Dewpoint: -1.0°C (30°F) [RH = 100%]
Pressure (altimeter): 29.47 inches Hg (998.0 mb)
Winds: from the W (270 degrees) at 12 MPH (10 knots; 5.1 m/s)
Visibility: 4 miles ( 7 km)
Ceiling: 600 feet AGL
Clouds: overcast cloud deck at 600 feet AGL
Weather: -SN  (light snow)

METAR text: UWKD 152100Z 26004MPS 3200 -SN OVC006 M01/M02 Q0998 R29/421040 NOSIG RMK QFE737/0983
Conditions at: UWKD (KAZAN , RU) observed 2100 UTC 15 February 2019
Temperature: -1.0°C (30°F)
Dewpoint: -2.0°C (28°F) [RH = 93%]
Pressure (altimeter): 29.47 inches Hg (998.0 mb)
Winds: from the W (260 degrees) at 9 MPH (8 knots; 4.1 m/s)
Visibility: 1.99 miles (3.20 km)
Ceiling: 600 feet AGL
Clouds: overcast cloud deck at 600 feet AGL
Weather: -SN  (light snow)

METAR text: UWKD 152030Z 25004MPS 5000 -SN OVC008 M01/M02 Q0998 R29/421040 NOSIG RMK QFE738/0984
Conditions at: UWKD (KAZAN , RU) observed 2030 UTC 15 February 2019
Temperature: -1.0°C (30°F)
Dewpoint: -2.0°C (28°F) [RH = 93%]
Pressure (altimeter): 29.47 inches Hg (998.0 mb)
Winds: from the WSW (250 degrees) at 9 MPH (8 knots; 4.1 m/s)
Visibility: 3 miles ( 5 km)
Ceiling: 800 feet AGL
Clouds: overcast cloud deck at 800 feet AGL
Weather: -SN  (light snow)

METAR text: UWKD 152000Z 25004MPS 5000 -SN OVC007 M02/M02 Q0998 R29/421040 NOSIG RMK QFE738/0984
Conditions at: UWKD (KAZAN , RU) observed 2000 UTC 15 February 2019
Temperature: -2.0°C (28°F)
Dewpoint: -2.0°C (28°F) [RH = 100%]
Pressure (altimeter): 29.47 inches Hg (998.0 mb)
Winds: from the WSW (250 degrees) at 9 MPH (8 knots; 4.1 m/s)
Visibility: 3 miles ( 5 km)
Ceiling: 700 feet AGL
Clouds: overcast cloud deck at 700 feet AGL
Weather: -SN  (light snow)

METAR text: UWKD 151930Z 25005MPS 4300 -SN OVC010 M02/M03 Q0998 R29/421040 NOSIG RMK QFE738/0984
Conditions at: UWKD (KAZAN , RU) observed 1930 UTC 15 February 2019
Temperature: -2.0°C (28°F)
Dewpoint: -3.0°C (27°F) [RH = 93%]
Pressure (altimeter): 29.47 inches Hg (998.0 mb)
Winds: from the WSW (250 degrees) at 12 MPH (10 knots; 5.1 m/s)
Visibility: 2.67 miles (4.30 km)
Ceiling: 1000 feet AGL
Clouds: overcast cloud deck at 1000 feet AGL
Weather: -SN  (light snow)

METAR text: UWKD 151900Z 25005MPS 5000 -SN OVC009 M02/M03 Q0999 R29/421040 NOSIG RMK QFE738/0984
Conditions at: UWKD (KAZAN , RU) observed 1900 UTC 15 February 2019
Temperature: -2.0°C (28°F)
Dewpoint: -3.0°C (27°F) [RH = 93%]
Pressure (altimeter): 29.50 inches Hg (999.0 mb)
Winds: from the WSW (250 degrees) at 12 MPH (10 knots; 5.1 m/s)
Visibility: 3 miles ( 5 km)
Ceiling: 900 feet AGL
Clouds: overcast cloud deck at 900 feet AGL
Weather: -SN  (light snow)

METAR text: UWKD 151830Z 25005MPS 9999 -SN OVC008 M02/M03 Q0999 R29/421040 NOSIG RMK QFE738/0984
Conditions at: UWKD (KAZAN , RU) observed 1830 UTC 15 February 2019
Temperature: -2.0°C (28°F)
Dewpoint: -3.0°C (27°F) [RH = 93%]
Pressure (altimeter): 29.50 inches Hg (999.0 mb)
Winds: from the WSW (250 degrees) at 12 MPH (10 knots; 5.1 m/s)
Visibility: 6 or more miles (10+ km)
Ceiling: 800 feet AGL
Clouds: overcast cloud deck at 800 feet AGL
Weather: -SN  (light snow)

METAR text: UWKD 151800Z 25004MPS 9999 -SN OVC009 M03/M04 Q0999 R29/421040 NOSIG RMK QFE738/0984
Conditions at: UWKD (KAZAN , RU) observed 1800 UTC 15 February 2019
Temperature: -3.0°C (27°F)
Dewpoint: -4.0°C (25°F) [RH = 93%]
Pressure (altimeter): 29.50 inches Hg (999.0 mb)
Winds: from the WSW (250 degrees) at 9 MPH (8 knots; 4.1 m/s)
Visibility: 6 or more miles (10+ km)
Ceiling: 900 feet AGL
Clouds: overcast cloud deck at 900 feet AGL
Weather: -SN  (light snow)

METAR text: UWKD 151730Z 24004MPS 5000 -SN OVC011 M03/M04 Q0999 R29/421040 NOSIG RMK QFE738/0985
Conditions at: UWKD (KAZAN , RU) observed 1730 UTC 15 February 2019
Temperature: -3.0°C (27°F)
Dewpoint: -4.0°C (25°F) [RH = 93%]
Pressure (altimeter): 29.50 inches Hg (999.0 mb)
Winds: from the WSW (240 degrees) at 9 MPH (8 knots; 4.1 m/s)
Visibility: 3 miles ( 5 km)
Ceiling: 1100 feet AGL
Clouds: overcast cloud deck at 1100 feet AGL
Weather: -SN  (light snow)

METAR text: UWKD 151700Z 24005MPS 4500 -SN OVC010 M04/M05 Q1000 R29/421040 NOSIG RMK QFE739/0985
Conditions at: UWKD (KAZAN , RU) observed 1700 UTC 15 February 2019
Temperature: -4.0°C (25°F)
Dewpoint: -5.0°C (23°F) [RH = 93%]
Pressure (altimeter): 29.53 inches Hg (1000.0 mb)
Winds: from the WSW (240 degrees) at 12 MPH (10 knots; 5.1 m/s)
Visibility: 2.80 miles (4.51 km)
Ceiling: 1000 feet AGL
Clouds: overcast cloud deck at 1000 feet AGL
Weather: -SN  (light snow)

METAR text: UWKD 151630Z 24005MPS 9000 -SN OVC012 M04/M05 Q1000 R29/421040 NOSIG RMK QFE739/0985
Conditions at: UWKD (KAZAN , RU) observed 1630 UTC 15 February 2019
Temperature: -4.0°C (25°F)
Dewpoint: -5.0°C (23°F) [RH = 93%]
Pressure (altimeter): 29.53 inches Hg (1000.0 mb)
Winds: from the WSW (240 degrees) at 12 MPH (10 knots; 5.1 m/s)
Visibility: 6 miles ( 9 km)
Ceiling: 1200 feet AGL
Clouds: overcast cloud deck at 1200 feet AGL
Weather: -SN  (light snow)

METAR text: UWKD 151600Z 22005MPS 3200 -SN OVC010 M04/M05 Q1001 R11/421040 NOSIG RMK QFE740/0987
Conditions at: UWKD (KAZAN , RU) observed 1600 UTC 15 February 2019
Temperature: -4.0°C (25°F)
Dewpoint: -5.0°C (23°F) [RH = 93%]
Pressure (altimeter): 29.56 inches Hg (1001.0 mb)
Winds: from the SW (220 degrees) at 12 MPH (10 knots; 5.1 m/s)
Visibility: 1.99 miles (3.20 km)
Ceiling: 1000 feet AGL
Clouds: overcast cloud deck at 1000 feet AGL
Weather: -SN  (light snow)

METAR text: UWKD 151530Z 21004MPS 3100 -SN DRSN OVC009 M04/M05 Q1001 R11/421040 NOSIG RMK QFE741/0988
Conditions at: UWKD (KAZAN , RU) observed 1530 UTC 15 February 2019
Temperature: -4.0°C (25°F)
Dewpoint: -5.0°C (23°F) [RH = 93%]
Pressure (altimeter): 29.56 inches Hg (1001.0 mb)
Winds: from the SSW (210 degrees) at 9 MPH (8 knots; 4.1 m/s)
Visibility: 1.93 miles (3.11 km)
Ceiling: 900 feet AGL
Clouds: overcast cloud deck at 900 feet AGL
Weather: -SN DRSN  (light snow, low drifting snow)

METAR text: UWKD 151500Z 21007MPS 2800 -SN BLSN OVC011 M04/M05 Q1002 R11/421040 TEMPO 21007G12MPS 1000 SN BLSN RMK QFE741/0989
Conditions at: UWKD (KAZAN , RU) observed 1500 UTC 15 February 2019
Temperature: -4.0°C (25°F)
Dewpoint: -5.0°C (23°F) [RH = 93%]
Pressure (altimeter): 29.59 inches Hg (1002.0 mb)
Winds: from the SSW (210 degrees) at 16 MPH (14 knots; 7.2 m/s)
Visibility: 1.74 miles (2.80 km)
Ceiling: 1100 feet AGL
Clouds: overcast cloud deck at 1100 feet AGL
Weather: -SN BLSN  (light snow, blowing snow)

METAR text: UWKD 151430Z 20004G09MPS 9999 -SN DRSN OVC013 M04/M05 Q1002 R11/421040 TEMPO 21007G12MPS 1000 SN BLSN RMK QFE742/0989
Conditions at: UWKD (KAZAN , RU) observed 1430 UTC 15 February 2019
Temperature: -4.0°C (25°F)
Dewpoint: -5.0°C (23°F) [RH = 93%]
Pressure (altimeter): 29.59 inches Hg (1002.0 mb)
Winds: from the SSW (200 degrees) at 9 MPH (8 knots; 4.1 m/s)
gusting to 20 MPH (17 knots; 8.7 m/s)
Visibility: 6 or more miles (10+ km)
Ceiling: 1300 feet AGL
Clouds: overcast cloud deck at 1300 feet AGL
Weather: -SN DRSN  (light snow, low drifting snow)

METAR text: UWKD 151400Z 19005G10MPS 1700 R11/1700U SN BLSN OVC006 M05/M06 Q1003 R11/421040 NOSIG RMK QFE742/0990
Conditions at: UWKD (KAZAN , RU) observed 1400 UTC 15 February 2019
Temperature: -5.0°C (23°F)
Dewpoint: -6.0°C (21°F) [RH = 93%]
Pressure (altimeter): 29.62 inches Hg (1003.0 mb)
Winds: from the S (190 degrees) at 12 MPH (10 knots; 5.1 m/s)
gusting to 22 MPH (19 knots; 9.8 m/s)
Visibility: 1.06 miles (1.71 km)
Ceiling: 600 feet AGL
Clouds: overcast cloud deck at 600 feet AGL
Weather: BLSN SN  (blowing snow, moderate snow)

METAR text: UWKD 151330Z 19005G10MPS 0750 R11/0750N +SN BLSN OVC005 M05/M06 Q1004 R11/421040 NOSIG RMK QFE743/0990
Conditions at: UWKD (KAZAN , RU) observed 1330 UTC 15 February 2019
Temperature: -5.0°C (23°F)
Dewpoint: -6.0°C (21°F) [RH = 93%]
Pressure (altimeter): 29.65 inches Hg (1004.0 mb)
Winds: from the S (190 degrees) at 12 MPH (10 knots; 5.1 m/s)
gusting to 22 MPH (19 knots; 9.8 m/s)
Visibility: 0.47 miles (0.76 km)
Ceiling: 500 feet AGL
Clouds: overcast cloud deck at 500 feet AGL
Weather: +SN BLSN  (heavy snow, blowing snow)

METAR text: UWKD 151300Z 19006G11MPS 0800 0750W R11/0750N +SN BLSN OVC006 M05/M06 Q1005 R11/421040 NOSIG RMK QFE743/0991
Conditions at: UWKD (KAZAN , RU) observed 1300 UTC 15 February 2019
Temperature: -5.0°C (23°F)
Dewpoint: -6.0°C (21°F) [RH = 93%]
Pressure (altimeter): 29.68 inches Hg (1005.0 mb)
Winds: from the S (190 degrees) at 14 MPH (12 knots; 6.2 m/s)
gusting to 24 MPH (21 knots; 10.8 m/s)
Visibility: 0.50 miles (0.80 km)
Ceiling: 600 feet AGL
Clouds: overcast cloud deck at 600 feet AGL
Weather: BLSN +SN  (blowing snow, heavy snow)

METAR text: UWKD 151230Z 19006G11MPS 1000 0900SW R11/1000N +SN BLSN OVC011 M05/M06 Q1005 R11/421040 TEMPO 20010G15MPS 0500 +SN BLSN OVC006 RMK QFE744/0992
Conditions at: UWKD (KAZAN , RU) observed 1230 UTC 15 February 2019
Temperature: -5.0°C (23°F)
Dewpoint: -6.0°C (21°F) [RH = 93%]
Pressure (altimeter): 29.68 inches Hg (1005.0 mb)
Winds: from the S (190 degrees) at 14 MPH (12 knots; 6.2 m/s)
gusting to 24 MPH (21 knots; 10.8 m/s)
Visibility: 0.62 miles (1.00 km)
Ceiling: 1100 feet AGL
Clouds: overcast cloud deck at 1100 feet AGL
Weather: BLSN +SN  (blowing snow, heavy snow)

METAR text: UWKD 151200Z 19005G10MPS 0900 0800SE R11/0900D +SN BLSN OVC010 M05/M06 Q1006 R11/420340 TEMPO 20010G15MPS 0500 +SN BLSN OVC006 RMK QFE744/0993
Conditions at: UWKD (KAZAN , RU) observed 1200 UTC 15 February 2019
Temperature: -5.0°C (23°F)
Dewpoint: -6.0°C (21°F) [RH = 93%]
Pressure (altimeter): 29.70 inches Hg (1006.0 mb)
Winds: from the S (190 degrees) at 12 MPH (10 knots; 5.1 m/s)
gusting to 22 MPH (19 knots; 9.8 m/s)
Visibility: 0.56 miles (0.90 km)
Ceiling: 1000 feet AGL
Clouds: overcast cloud deck at 1000 feet AGL
Weather: BLSN +SN  (blowing snow, heavy snow)

METAR text: UWKD 151130Z 19007G12MPS 1000 R11/1000N SN BLSN OVC010 M05/M06 Q1007 R11/420340 TEMPO 20010G15MPS 0700 +SN BLSN OVC006 RMK QFE745/0994
Conditions at: UWKD (KAZAN , RU) observed 1130 UTC 15 February 2019
Temperature: -5.0°C (23°F)
Dewpoint: -6.0°C (21°F) [RH = 93%]
Pressure (altimeter): 29.73 inches Hg (1007.0 mb)
Winds: from the S (190 degrees) at 16 MPH (14 knots; 7.2 m/s)
gusting to 26 MPH (23 knots; 11.8 m/s)
Visibility: 0.62 miles (1.00 km)
Ceiling: 1000 feet AGL
Clouds: overcast cloud deck at 1000 feet AGL
Weather: SN BLSN  (moderate snow, blowing snow)

METAR text: UWKD 151100Z 19007G12MPS 1200 1100W R11/1100D SN BLSN OVC012 M05/M07 Q1008 R11/420340 TEMPO 20010G15MPS 0700 +SN BLSN OVC006 RMK QFE746/0995
Conditions at: UWKD (KAZAN , RU) observed 1100 UTC 15 February 2019
Temperature: -5.0°C (23°F)
Dewpoint: -7.0°C (19°F) [RH = 86%]
Pressure (altimeter): 29.76 inches Hg (1008.0 mb)
Winds: from the S (190 degrees) at 16 MPH (14 knots; 7.2 m/s)
gusting to 26 MPH (23 knots; 11.8 m/s)
Visibility: 0.75 miles (1.21 km)
Ceiling: 1200 feet AGL
Clouds: overcast cloud deck at 1200 feet AGL
Weather: BLSN SN  (blowing snow, moderate snow)

METAR text: UWKD 151030Z 18005G10MPS 2900 -SN BLSN OVC030 M05/M07 Q1009 R11/420340 TEMPO 20007G12MPS 1000 SN BLSN OVC006 RMK QFE746/0995
Conditions at: UWKD (KAZAN , RU) observed 1030 UTC 15 February 2019
Temperature: -5.0°C (23°F)
Dewpoint: -7.0°C (19°F) [RH = 86%]
Pressure (altimeter): 29.79 inches Hg (1009.0 mb)
Winds: from the S (180 degrees) at 12 MPH (10 knots; 5.1 m/s)
gusting to 22 MPH (19 knots; 9.8 m/s)
Visibility: 1.80 miles (2.90 km)
Ceiling: 3000 feet AGL
Clouds: overcast cloud deck at 3000 feet AGL
Weather: -SN BLSN  (light snow, blowing snow)

METAR text: UWKD 151000Z 20006G11MPS 9999 DRSN OVC046 M05/M08 Q1010 R29/420340 TEMPO 20007G12MPS 1000 SN BLSN OVC006 RMK QFE746/0995
Conditions at: UWKD (KAZAN , RU) observed 1000 UTC 15 February 2019
Temperature: -5.0°C (23°F)
Dewpoint: -8.0°C (18°F) [RH = 79%]
Pressure (altimeter): 29.82 inches Hg (1010.0 mb)
Winds: from the SSW (200 degrees) at 14 MPH (12 knots; 6.2 m/s)
gusting to 24 MPH (21 knots; 10.8 m/s)
Visibility: 6 or more miles (10+ km)
Ceiling: 4600 feet AGL
Clouds: overcast cloud deck at 4600 feet AGL
Weather: DRSN  (low drifting snow)

METAR text: UWKD 150930Z 20005G10MPS 9999 DRSN BKN014 M05/M08 Q1011 R29/420340 TEMPO 20007G12MPS 1000 SN BLSN OVC006 RMK QFE747/0996
Conditions at: UWKD (KAZAN , RU) observed 0930 UTC 15 February 2019
Temperature: -5.0°C (23°F)
Dewpoint: -8.0°C (18°F) [RH = 79%]
Pressure (altimeter): 29.85 inches Hg (1011.0 mb)
Winds: from the SSW (200 degrees) at 12 MPH (10 knots; 5.1 m/s)
gusting to 22 MPH (19 knots; 9.8 m/s)
Visibility: 6 or more miles (10+ km)
Ceiling: 1400 feet AGL
Clouds: broken clouds at 1400 feet AGL
Weather: DRSN  (low drifting snow)

METAR text: UWKD 150900Z 19006MPS 9999 DRSN BKN013 M05/M08 Q1012 R29/420340 TEMPO 20007G12MPS 1000 SN BLSN OVC006 RMK QFE748/0997
Conditions at: UWKD (KAZAN , RU) observed 0900 UTC 15 February 2019
Temperature: -5.0°C (23°F)
Dewpoint: -8.0°C (18°F) [RH = 79%]
Pressure (altimeter): 29.88 inches Hg (1012.0 mb)
Winds: from the S (190 degrees) at 14 MPH (12 knots; 6.2 m/s)
Visibility: 6 or more miles (10+ km)
Ceiling: 1300 feet AGL
Clouds: broken clouds at 1300 feet AGL
Weather: DRSN  (low drifting snow)

METAR text: UWKD 150830Z 19005G10MPS 9999 DRSN OVC030 M06/M08 Q1013 R29/420340 TEMPO 20007G12MPS 1000 SN BLSN OVC006 RMK QFE749/0998
Conditions at: UWKD (KAZAN , RU) observed 0830 UTC 15 February 2019
Temperature: -6.0°C (21°F)
Dewpoint: -8.0°C (18°F) [RH = 86%]
Pressure (altimeter): 29.91 inches Hg (1013.0 mb)
Winds: from the S (190 degrees) at 12 MPH (10 knots; 5.1 m/s)
gusting to 22 MPH (19 knots; 9.8 m/s)
Visibility: 6 or more miles (10+ km)
Ceiling: 3000 feet AGL
Clouds: overcast cloud deck at 3000 feet AGL
Weather: DRSN  (low drifting snow)

METAR text: UWKD 150800Z 20007MPS 9999 OVC012 M06/M09 Q1014 R29/420340 TEMPO 20007G12MPS 1000 SN BLSN OVC006 RMK QFE749/0999
Conditions at: UWKD (KAZAN , RU) observed 0800 UTC 15 February 2019
Temperature: -6.0°C (21°F)
Dewpoint: -9.0°C (16°F) [RH = 79%]
Pressure (altimeter): 29.94 inches Hg (1014.0 mb)
Winds: from the SSW (200 degrees) at 16 MPH (14 knots; 7.2 m/s)
Visibility: 6 or more miles (10+ km)
Ceiling: 1200 feet AGL
Clouds: overcast cloud deck at 1200 feet AGL
Weather: no significant weather observed at this time

METAR text: UWKD 150730Z 19007MPS 9999 BKN026 M06/M09 Q1014 R29/420340 NOSIG RMK QFE750/1000
Conditions at: UWKD (KAZAN , RU) observed 0730 UTC 15 February 2019
Temperature: -6.0°C (21°F)
Dewpoint: -9.0°C (16°F) [RH = 79%]
Pressure (altimeter): 29.94 inches Hg (1014.0 mb)
Winds: from the S (190 degrees) at 16 MPH (14 knots; 7.2 m/s)
Visibility: 6 or more miles (10+ km)
Ceiling: 2600 feet AGL
Clouds: broken clouds at 2600 feet AGL
Weather: no significant weather observed at this time

METAR text: UWKD 150700Z 19006MPS 9999 BKN010 M07/M09 Q1015 R29/420340 NOSIG RMK QFE750/1000
Conditions at: UWKD (KAZAN , RU) observed 0700 UTC 15 February 2019
Temperature: -7.0°C (19°F)
Dewpoint: -9.0°C (16°F) [RH = 86%]
Pressure (altimeter): 29.97 inches Hg (1015.0 mb)
Winds: from the S (190 degrees) at 14 MPH (12 knots; 6.2 m/s)
Visibility: 6 or more miles (10+ km)
Ceiling: 1000 feet AGL
Clouds: broken clouds at 1000 feet AGL
Weather: no significant weather observed at this time

METAR text: UWKD 150630Z 19005MPS 9999 BKN010 M07/M10 Q1016 R29/420340 NOSIG RMK QFE750/1001
Conditions at: UWKD (KAZAN , RU) observed 0630 UTC 15 February 2019
Temperature: -7.0°C (19°F)
Dewpoint: -10.0°C (14°F) [RH = 79%]
Pressure (altimeter): 30.00 inches Hg (1016.0 mb)
Winds: from the S (190 degrees) at 12 MPH (10 knots; 5.1 m/s)
Visibility: 6 or more miles (10+ km)
Ceiling: 1000 feet AGL
Clouds: broken clouds at 1000 feet AGL
Weather: no significant weather observed at this time

METAR text: UWKD 150600Z 23003MPS 200V260 9000 -SN OVC013 M07/M10 Q1017 R29/420340 NOSIG RMK QFE751/1002
Conditions at: UWKD (KAZAN , RU) observed 0600 UTC 15 February 2019
Temperature: -7.0°C (19°F)
Dewpoint: -10.0°C (14°F) [RH = 79%]
Pressure (altimeter): 30.03 inches Hg (1017.0 mb)
Winds: from the SW (230 degrees) at 7 MPH (6 knots; 3.1 m/s)
Visibility: 6 miles ( 9 km)
Ceiling: 1300 feet AGL
Clouds: overcast cloud deck at 1300 feet AGL
Weather: -SN  (light snow)

METAR text: UWKD 150530Z 23003MPS 9000 -SN OVC015 M07/M10 Q1017 R29/420340 NOSIG RMK QFE752/1003
Conditions at: UWKD (KAZAN , RU) observed 0530 UTC 15 February 2019
Temperature: -7.0°C (19°F)
Dewpoint: -10.0°C (14°F) [RH = 79%]
Pressure (altimeter): 30.03 inches Hg (1017.0 mb)
Winds: from the SW (230 degrees) at 7 MPH (6 knots; 3.1 m/s)
Visibility: 6 miles ( 9 km)
Ceiling: 1500 feet AGL
Clouds: overcast cloud deck at 1500 feet AGL
Weather: -SN  (light snow)

METAR text: UWKD 150500Z 25004MPS 9000 OVC014 M07/M10 Q1018 R29/420340 NOSIG RMK QFE752/1003
Conditions at: UWKD (KAZAN , RU) observed 0500 UTC 15 February 2019
Temperature: -7.0°C (19°F)
Dewpoint: -10.0°C (14°F) [RH = 79%]
Pressure (altimeter): 30.06 inches Hg (1018.0 mb)
Winds: from the WSW (250 degrees) at 9 MPH (8 knots; 4.1 m/s)
Visibility: 6 miles ( 9 km)
Ceiling: 1400 feet AGL
Clouds: overcast cloud deck at 1400 feet AGL
Weather: no significant weather observed at this time

METAR text: UWKD 150430Z 25004MPS 9999 OVC014 M07/M10 Q1018 R29/420340 NOSIG RMK QFE752/1003
Conditions at: UWKD (KAZAN , RU) observed 0430 UTC 15 February 2019
Temperature: -7.0°C (19°F)
Dewpoint: -10.0°C (14°F) [RH = 79%]
Pressure (altimeter): 30.06 inches Hg (1018.0 mb)
Winds: from the WSW (250 degrees) at 9 MPH (8 knots; 4.1 m/s)
Visibility: 6 or more miles (10+ km)
Ceiling: 1400 feet AGL
Clouds: overcast cloud deck at 1400 feet AGL
Weather: no significant weather observed at this time

METAR text: UWKD 150400Z 25003MPS 9999 OVC015 M07/M10 Q1018 R29/420340 NOSIG RMK QFE752/1003
Conditions at: UWKD (KAZAN , RU) observed 0400 UTC 15 February 2019
Temperature: -7.0°C (19°F)
Dewpoint: -10.0°C (14°F) [RH = 79%]
Pressure (altimeter): 30.06 inches Hg (1018.0 mb)
Winds: from the WSW (250 degrees) at 7 MPH (6 knots; 3.1 m/s)
Visibility: 6 or more miles (10+ km)
Ceiling: 1500 feet AGL
Clouds: overcast cloud deck at 1500 feet AGL
Weather: no significant weather observed at this time

METAR text: UWKD 150330Z 26005MPS 9999 OVC014 M08/M10 Q1019 R29/420340 NOSIG RMK QFE753/1004
Conditions at: UWKD (KAZAN , RU) observed 0330 UTC 15 February 2019
Temperature: -8.0°C (18°F)
Dewpoint: -10.0°C (14°F) [RH = 85%]
Pressure (altimeter): 30.09 inches Hg (1019.0 mb)
Winds: from the W (260 degrees) at 12 MPH (10 knots; 5.1 m/s)
Visibility: 6 or more miles (10+ km)
Ceiling: 1400 feet AGL
Clouds: overcast cloud deck at 1400 feet AGL
Weather: no significant weather observed at this time

METAR text: UWKD 150300Z 27006MPS 9999 OVC014 M07/M10 Q1019 R29/420340 NOSIG RMK QFE753/1004
Conditions at: UWKD (KAZAN , RU) observed 0300 UTC 15 February 2019
Temperature: -7.0°C (19°F)
Dewpoint: -10.0°C (14°F) [RH = 79%]
Pressure (altimeter): 30.09 inches Hg (1019.0 mb)
Winds: from the W (270 degrees) at 14 MPH (12 knots; 6.2 m/s)
Visibility: 6 or more miles (10+ km)
Ceiling: 1400 feet AGL
Clouds: overcast cloud deck at 1400 feet AGL
Weather: no significant weather observed at this time

METAR text: UWKD 150230Z 26006MPS 9999 OVC014 M07/M10 Q1019 R29/420340 NOSIG RMK QFE753/1004
Conditions at: UWKD (KAZAN , RU) observed 0230 UTC 15 February 2019
Temperature: -7.0°C (19°F)
Dewpoint: -10.0°C (14°F) [RH = 79%]
Pressure (altimeter): 30.09 inches Hg (1019.0 mb)
Winds: from the W (260 degrees) at 14 MPH (12 knots; 6.2 m/s)
Visibility: 6 or more miles (10+ km)
Ceiling: 1400 feet AGL
Clouds: overcast cloud deck at 1400 feet AGL
Weather: no significant weather observed at this time

METAR text: UWKD 150200Z 27006MPS 9999 OVC015 M07/M10 Q1019 R29/420340 NOSIG RMK QFE753/1004
Conditions at: UWKD (KAZAN , RU) observed 0200 UTC 15 February 2019
Temperature: -7.0°C (19°F)
Dewpoint: -10.0°C (14°F) [RH = 79%]
Pressure (altimeter): 30.09 inches Hg (1019.0 mb)
Winds: from the W (270 degrees) at 14 MPH (12 knots; 6.2 m/s)
Visibility: 6 or more miles (10+ km)
Ceiling: 1500 feet AGL
Clouds: overcast cloud deck at 1500 feet AGL
Weather: no significant weather observed at this time

METAR text: UWKD 150130Z 28004MPS 9999 -SN OVC016 M07/M10 Q1019 R29/420340 NOSIG RMK QFE753/1004
Conditions at: UWKD (KAZAN , RU) observed 0130 UTC 15 February 2019
Temperature: -7.0°C (19°F)
Dewpoint: -10.0°C (14°F) [RH = 79%]
Pressure (altimeter): 30.09 inches Hg (1019.0 mb)
Winds: from the W (280 degrees) at 9 MPH (8 knots; 4.1 m/s)
Visibility: 6 or more miles (10+ km)
Ceiling: 1600 feet AGL
Clouds: overcast cloud deck at 1600 feet AGL
Weather: -SN  (light snow)

METAR text: UWKD 150100Z 27004MPS 9999 -SN OVC021 M07/M09 Q1020 R29/420340 NOSIG RMK QFE753/1005
Conditions at: UWKD (KAZAN , RU) observed 0100 UTC 15 February 2019
Temperature: -7.0°C (19°F)
Dewpoint: -9.0°C (16°F) [RH = 86%]
Pressure (altimeter): 30.12 inches Hg (1020.0 mb)
Winds: from the W (270 degrees) at 9 MPH (8 knots; 4.1 m/s)
Visibility: 6 or more miles (10+ km)
Ceiling: 2100 feet AGL
Clouds: overcast cloud deck at 2100 feet AGL
Weather: -SN  (light snow)

METAR text: UWKD 150030Z 28005MPS 9999 OVC015 M06/M10 Q1020 R29/420340 NOSIG RMK QFE754/1005
Conditions at: UWKD (KAZAN , RU) observed 0030 UTC 15 February 2019
Temperature: -6.0°C (21°F)
Dewpoint: -10.0°C (14°F) [RH = 73%]
Pressure (altimeter): 30.12 inches Hg (1020.0 mb)
Winds: from the W (280 degrees) at 12 MPH (10 knots; 5.1 m/s)
Visibility: 6 or more miles (10+ km)
Ceiling: 1500 feet AGL
Clouds: overcast cloud deck at 1500 feet AGL
Weather: no significant weather observed at this time

METAR text: UWKD 150000Z 28005MPS 9999 OVC016 M06/M10 Q1020 R29/420340 NOSIG RMK QFE754/1005
Conditions at: UWKD (KAZAN , RU) observed 0000 UTC 15 February 2019
Temperature: -6.0°C (21°F)
Dewpoint: -10.0°C (14°F) [RH = 73%]
Pressure (altimeter): 30.12 inches Hg (1020.0 mb)
Winds: from the W (280 degrees) at 12 MPH (10 knots; 5.1 m/s)
Visibility: 6 or more miles (10+ km)
Ceiling: 1600 feet AGL
Clouds: overcast cloud deck at 1600 feet AGL
Weather: no significant weather observed at this time

METAR text: UWKD 142330Z 28006MPS 9999 OVC016 M06/M10 Q1020 R29/420340 NOSIG RMK QFE754/1006
Conditions at: UWKD (KAZAN , RU) observed 2330 UTC 14 February 2019
Temperature: -6.0°C (21°F)
Dewpoint: -10.0°C (14°F) [RH = 73%]
Pressure (altimeter): 30.12 inches Hg (1020.0 mb)
Winds: from the W (280 degrees) at 14 MPH (12 knots; 6.2 m/s)
Visibility: 6 or more miles (10+ km)
Ceiling: 1600 feet AGL
Clouds: overcast cloud deck at 1600 feet AGL
Weather: no significant weather observed at this time

METAR text: UWKD 142300Z 29004G09MPS 9999 DRSN OVC016 M06/M09 Q1020 R29/420340 NOSIG RMK QFE754/1006
Conditions at: UWKD (KAZAN , RU) observed 2300 UTC 14 February 2019
Temperature: -6.0°C (21°F)
Dewpoint: -9.0°C (16°F) [RH = 79%]
Pressure (altimeter): 30.12 inches Hg (1020.0 mb)
Winds: from the WNW (290 degrees) at 9 MPH (8 knots; 4.1 m/s)
gusting to 20 MPH (17 knots; 8.7 m/s)
Visibility: 6 or more miles (10+ km)
Ceiling: 1600 feet AGL
Clouds: overcast cloud deck at 1600 feet AGL
Weather: DRSN  (low drifting snow)

METAR text: UWKD 142230Z 28004G09MPS 9999 DRSN OVC016 M06/M09 Q1020 R29/420340 NOSIG RMK QFE754/1005
Conditions at: UWKD (KAZAN , RU) observed 2230 UTC 14 February 2019
Temperature: -6.0°C (21°F)
Dewpoint: -9.0°C (16°F) [RH = 79%]
Pressure (altimeter): 30.12 inches Hg (1020.0 mb)
Winds: from the W (280 degrees) at 9 MPH (8 knots; 4.1 m/s)
gusting to 20 MPH (17 knots; 8.7 m/s)
Visibility: 6 or more miles (10+ km)
Ceiling: 1600 feet AGL
Clouds: overcast cloud deck at 1600 feet AGL
Weather: DRSN  (low drifting snow)

METAR text: UWKD 142200Z 30005MPS 9999 OVC015 M05/M08 Q1020 R29/420340 NOSIG RMK QFE754/1005
Conditions at: UWKD (KAZAN , RU) observed 2200 UTC 14 February 2019
Temperature: -5.0°C (23°F)
Dewpoint: -8.0°C (18°F) [RH = 79%]
Pressure (altimeter): 30.12 inches Hg (1020.0 mb)
Winds: from the WNW (300 degrees) at 12 MPH (10 knots; 5.1 m/s)
Visibility: 6 or more miles (10+ km)
Ceiling: 1500 feet AGL
Clouds: overcast cloud deck at 1500 feet AGL
Weather: no significant weather observed at this time

METAR text: UWKD 142130Z 32006MPS 9999 OVC016 M05/M08 Q1020 R29/420340 NOSIG RMK QFE754/1005
Conditions at: UWKD (KAZAN , RU) observed 2130 UTC 14 February 2019
Temperature: -5.0°C (23°F)
Dewpoint: -8.0°C (18°F) [RH = 79%]
Pressure (altimeter): 30.12 inches Hg (1020.0 mb)
Winds: from the NW (320 degrees) at 14 MPH (12 knots; 6.2 m/s)
Visibility: 6 or more miles (10+ km)
Ceiling: 1600 feet AGL
Clouds: overcast cloud deck at 1600 feet AGL
Weather: no significant weather observed at this time

METAR text: UWKD 142100Z 29006MPS 9999 OVC018 M04/M07 Q1020 R29/420340 NOSIG RMK QFE753/1005
Conditions at: UWKD (KAZAN , RU) observed 2100 UTC 14 February 2019
Temperature: -4.0°C (25°F)
Dewpoint: -7.0°C (19°F) [RH = 80%]
Pressure (altimeter): 30.12 inches Hg (1020.0 mb)
Winds: from the WNW (290 degrees) at 14 MPH (12 knots; 6.2 m/s)
Visibility: 6 or more miles (10+ km)
Ceiling: 1800 feet AGL
Clouds: overcast cloud deck at 1800 feet AGL
Weather: no significant weather observed at this time

METAR text: UWKD 142030Z 29006MPS 9999 OVC015 M04/M07 Q1019 R29/420340 NOSIG RMK QFE753/1004
Conditions at: UWKD (KAZAN , RU) observed 2030 UTC 14 February 2019
Temperature: -4.0°C (25°F)
Dewpoint: -7.0°C (19°F) [RH = 80%]
Pressure (altimeter): 30.09 inches Hg (1019.0 mb)
Winds: from the WNW (290 degrees) at 14 MPH (12 knots; 6.2 m/s)
Visibility: 6 or more miles (10+ km)
Ceiling: 1500 feet AGL
Clouds: overcast cloud deck at 1500 feet AGL
Weather: no significant weather observed at this time

METAR text: UWKD 142000Z 29004G09MPS 9999 DRSN OVC011 M04/M06 Q1019 R29/420340 NOSIG RMK QFE753/1004
Conditions at: UWKD (KAZAN , RU) observed 2000 UTC 14 February 2019
Temperature: -4.0°C (25°F)
Dewpoint: -6.0°C (21°F) [RH = 86%]
Pressure (altimeter): 30.09 inches Hg (1019.0 mb)
Winds: from the WNW (290 degrees) at 9 MPH (8 knots; 4.1 m/s)
gusting to 20 MPH (17 knots; 8.7 m/s)
Visibility: 6 or more miles (10+ km)
Ceiling: 1100 feet AGL
Clouds: overcast cloud deck at 1100 feet AGL
Weather: DRSN  (low drifting snow)

METAR text: UWKD 141930Z 29004G09MPS 9999 -SN DRSN OVC008 M04/M05 Q1019 R29/420340 NOSIG RMK QFE753/1004
Conditions at: UWKD (KAZAN , RU) observed 1930 UTC 14 February 2019
Temperature: -4.0°C (25°F)
Dewpoint: -5.0°C (23°F) [RH = 93%]
Pressure (altimeter): 30.09 inches Hg (1019.0 mb)
Winds: from the WNW (290 degrees) at 9 MPH (8 knots; 4.1 m/s)
gusting to 20 MPH (17 knots; 8.7 m/s)
Visibility: 6 or more miles (10+ km)
Ceiling: 800 feet AGL
Clouds: overcast cloud deck at 800 feet AGL
Weather: -SN DRSN  (light snow, low drifting snow)

METAR text: UWKD 141900Z 29004G09MPS 9999 -SN DRSN OVC007 M03/M05 Q1019 R29/420340 NOSIG RMK QFE753/1004
Conditions at: UWKD (KAZAN , RU) observed 1900 UTC 14 February 2019
Temperature: -3.0°C (27°F)
Dewpoint: -5.0°C (23°F) [RH = 86%]
Pressure (altimeter): 30.09 inches Hg (1019.0 mb)
Winds: from the WNW (290 degrees) at 9 MPH (8 knots; 4.1 m/s)
gusting to 20 MPH (17 knots; 8.7 m/s)
Visibility: 6 or more miles (10+ km)
Ceiling: 700 feet AGL
Clouds: overcast cloud deck at 700 feet AGL
Weather: -SN DRSN  (light snow, low drifting snow)

METAR text: UWKD 141830Z 29004G09MPS 9999 DRSN OVC007 M03/M05 Q1019 R29/420340 NOSIG RMK QFE753/1004
Conditions at: UWKD (KAZAN , RU) observed 1830 UTC 14 February 2019
Temperature: -3.0°C (27°F)
Dewpoint: -5.0°C (23°F) [RH = 86%]
Pressure (altimeter): 30.09 inches Hg (1019.0 mb)
Winds: from the WNW (290 degrees) at 9 MPH (8 knots; 4.1 m/s)
gusting to 20 MPH (17 knots; 8.7 m/s)
Visibility: 6 or more miles (10+ km)
Ceiling: 700 feet AGL
Clouds: overcast cloud deck at 700 feet AGL
Weather: DRSN  (low drifting snow)

METAR text: UWKD 141800Z 29004G09MPS 9999 DRSN OVC020 M03/M05 Q1018 R29/420340 NOSIG RMK QFE753/1004
Conditions at: UWKD (KAZAN , RU) observed 1800 UTC 14 February 2019
Temperature: -3.0°C (27°F)
Dewpoint: -5.0°C (23°F) [RH = 86%]
Pressure (altimeter): 30.06 inches Hg (1018.0 mb)
Winds: from the WNW (290 degrees) at 9 MPH (8 knots; 4.1 m/s)
gusting to 20 MPH (17 knots; 8.7 m/s)
Visibility: 6 or more miles (10+ km)
Ceiling: 2000 feet AGL
Clouds: overcast cloud deck at 2000 feet AGL
Weather: DRSN  (low drifting snow)

METAR text: UWKD 141730Z 29006MPS 9999 -SN OVC015 M03/M05 Q1018 R29/420340 NOSIG RMK QFE752/1003
Conditions at: UWKD (KAZAN , RU) observed 1730 UTC 14 February 2019
Temperature: -3.0°C (27°F)
Dewpoint: -5.0°C (23°F) [RH = 86%]
Pressure (altimeter): 30.06 inches Hg (1018.0 mb)
Winds: from the WNW (290 degrees) at 14 MPH (12 knots; 6.2 m/s)
Visibility: 6 or more miles (10+ km)
Ceiling: 1500 feet AGL
Clouds: overcast cloud deck at 1500 feet AGL
Weather: -SN  (light snow)

METAR text: UWKD 141700Z 29005MPS 9999 -SN OVC015 M02/M04 Q1018 R29/420340 NOSIG RMK QFE752/1003
Conditions at: UWKD (KAZAN , RU) observed 1700 UTC 14 February 2019
Temperature: -2.0°C (28°F)
Dewpoint: -4.0°C (25°F) [RH = 86%]
Pressure (altimeter): 30.06 inches Hg (1018.0 mb)
Winds: from the WNW (290 degrees) at 12 MPH (10 knots; 5.1 m/s)
Visibility: 6 or more miles (10+ km)
Ceiling: 1500 feet AGL
Clouds: overcast cloud deck at 1500 feet AGL
Weather: -SN  (light snow)

Forecast for: UWKD (KAZAN , RU)
Text: TAF UWKD 160200Z 1603/1703 28006G12MPS 3100 -SNRA BR OVC008 TX01/1612Z TNM05/1703Z
Forecast period: 0300 to 1500 UTC 16 February 2019
Forecast type: FROM: standard forecast or significant change
Winds: from the W (280 degrees) at 14 MPH (12 knots; 6.2 m/s)
gusting to 26 MPH (23 knots; 11.8 m/s)
Visibility: 1.93 miles (3.11 km)
Ceiling: 800 feet AGL
Clouds: overcast cloud deck at 800 feet AGL
Weather: -SN -RA BR  (light snow, light rain, mist)
Text: TEMPO 1603/1609 0800 +SHSNRA BKN003 BKN010CB
Forecast period: 0300 to 0900 UTC 16 February 2019
Forecast type: TEMPORARY: The following changes expected for less than half the time period
Visibility: 0.50 miles (0.80 km)
Ceiling: 300 feet AGL
Clouds: broken clouds at 300 feet AGL
broken clouds at 1000 feet AGL
Weather: +SHSN +SHRA  (heavy snow showers, heavy rain showers)
Text: TEMPO 1609/1615 2000 SHSNRA BKN005 BKN010CB
Forecast period: 0900 to 1500 UTC 16 February 2019
Forecast type: TEMPORARY: The following changes expected for less than half the time period
Visibility: 1.24 miles (2.00 km)
Ceiling: 500 feet AGL
Clouds: broken clouds at 500 feet AGL
broken clouds at 1000 feet AGL
Weather: SHSN SHRA  (snow showers, rain showers)
Text: BECMG 1615/1617 31005G10MPS
Forecast period: 1500 UTC 16 February 2019 to 0300 UTC 17 February 2019
Forecast type: BECOMING: Conditions expected to become as follows by 1700 UTC 16 February 2019
Winds: from the NW (310 degrees) at 12 MPH (10 knots; 5.1 m/s)
gusting to 22 MPH (19 knots; 9.8 m/s)
Visibility: 1.93 miles (3.11 km)
Ceiling: 800 feet AGL
Clouds: overcast cloud deck at 800 feet AGL
Weather: -SN -RA BR  (light snow, light rain, mist)